sensor_id;sensor_type;location;lat;lon;timestamp;P1;durP1;ratioP1;P2;durP2;ratioP2
38208;SDS011;24016;52.102;11.584;2023-05-28T00:00:06;12.75;;;6.25;;
38208;SDS011;24016;52.102;11.584;2023-05-28T00:02:32;12.77;;;5.65;;
38208;SDS011;24016;52.102;11.584;2023-05-28T00:04:58;10.43;;;6.00;;
38208;SDS011;24016;52.102;11.584;2023-05-28T00:07:24;16.77;;;8.93;;
38208;SDS011;24016;52.102;11.584;2023-05-28T00:09:50;14.15;;;7.60;;
38208;SDS011;24016;52.102;11.584;2023-05-28T00:12:15;11.70;;;6.90;;
38208;SDS011;24016;52.102;11.584;2023-05-28T00:14:41;10.77;;;6.45;;
38208;SDS011;24016;52.102;11.584;2023-05-28T00:17:06;12.65;;;6.03;;
38208;SDS011;24016;52.102;11.584;2023-05-28T00:19:32;9.85;;;5.68;;
38208;SDS011;24016;52.102;11.584;2023-05-28T00:21:58;9.63;;;5.85;;
38208;SDS011;24016;52.102;11.584;2023-05-28T00:24:23;9.27;;;6.10;;
38208;SDS011;24016;52.102;11.584;2023-05-28T00:26:49;9.45;;;5.63;;
38208;SDS011;24016;52.102;11.584;2023-05-28T00:29:14;10.70;;;6.03;;
38208;SDS011;24016;52.102;11.584;2023-05-28T00:31:40;10.45;;;5.78;;
38208;SDS011;24016;52.102;11.584;2023-05-28T00:34:05;12.13;;;5.60;;
38208;SDS011;24016;52.102;11.584;2023-05-28T00:36:31;9.52;;;6.38;;
38208;SDS011;24016;52.102;11.584;2023-05-28T00:38:56;8.35;;;5.55;;
38208;SDS011;24016;52.102;11.584;2023-05-28T00:41:24;11.38;;;6.13;;
38208;SDS011;24016;52.102;11.584;2023-05-28T00:43:50;9.77;;;5.80;;
38208;SDS011;24016;52.102;11.584;2023-05-28T00:46:19;10.02;;;5.70;;
38208;SDS011;24016;52.102;11.584;2023-05-28T00:48:47;9.30;;;6.07;;
38208;SDS011;24016;52.102;11.584;2023-05-28T00:51:13;14.45;;;6.60;;
38208;SDS011;24016;52.102;11.584;2023-05-28T00:53:39;10.20;;;6.28;;
38208;SDS011;24016;52.102;11.584;2023-05-28T00:56:06;11.68;;;6.95;;
38208;SDS011;24016;52.102;11.584;2023-05-28T00:58:39;9.38;;;5.90;;
38208;SDS011;24016;52.102;11.584;2023-05-28T01:01:06;10.07;;;5.78;;
38208;SDS011;24016;52.102;11.584;2023-05-28T01:03:33;9.98;;;6.28;;
38208;SDS011;24016;52.102;11.584;2023-05-28T01:06:03;8.95;;;5.80;;
38208;SDS011;24016;52.102;11.584;2023-05-28T01:08:34;15.18;;;6.18;;
38208;SDS011;24016;52.102;11.584;2023-05-28T01:11:02;8.13;;;5.70;;
38208;SDS011;24016;52.102;11.584;2023-05-28T01:13:28;11.10;;;5.95;;
38208;SDS011;24016;52.102;11.584;2023-05-28T01:15:53;10.52;;;6.10;;
38208;SDS011;24016;52.102;11.584;2023-05-28T01:18:19;11.88;;;6.32;;
38208;SDS011;24016;52.102;11.584;2023-05-28T01:20:45;10.73;;;5.60;;
38208;SDS011;24016;52.102;11.584;2023-05-28T01:23:11;9.75;;;5.60;;
38208;SDS011;24016;52.102;11.584;2023-05-28T01:25:42;7.60;;;5.00;;
38208;SDS011;24016;52.102;11.584;2023-05-28T01:28:13;9.90;;;5.38;;
38208;SDS011;24016;52.102;11.584;2023-05-28T01:33:16;10.95;;;4.82;;
38208;SDS011;24016;52.102;11.584;2023-05-28T01:35:43;9.65;;;5.18;;
38208;SDS011;24016;52.102;11.584;2023-05-28T01:38:09;6.82;;;4.63;;
38208;SDS011;24016;52.102;11.584;2023-05-28T01:40:38;9.05;;;4.70;;
38208;SDS011;24016;52.102;11.584;2023-05-28T01:43:06;8.52;;;4.00;;
38208;SDS011;24016;52.102;11.584;2023-05-28T01:45:32;8.48;;;4.50;;
38208;SDS011;24016;52.102;11.584;2023-05-28T01:47:58;9.90;;;4.68;;
38208;SDS011;24016;52.102;11.584;2023-05-28T01:50:23;9.00;;;4.50;;
38208;SDS011;24016;52.102;11.584;2023-05-28T01:52:52;7.45;;;5.10;;
38208;SDS011;24016;52.102;11.584;2023-05-28T01:55:17;10.93;;;5.10;;
38208;SDS011;24016;52.102;11.584;2023-05-28T01:57:44;9.32;;;4.97;;
38208;SDS011;24016;52.102;11.584;2023-05-28T02:00:09;10.18;;;5.07;;
38208;SDS011;24016;52.102;11.584;2023-05-28T02:02:35;8.48;;;4.55;;
38208;SDS011;24016;52.102;11.584;2023-05-28T02:05:01;6.95;;;4.78;;
38208;SDS011;24016;52.102;11.584;2023-05-28T02:07:27;7.70;;;4.95;;
38208;SDS011;24016;52.102;11.584;2023-05-28T02:09:52;9.07;;;4.65;;
38208;SDS011;24016;52.102;11.584;2023-05-28T02:12:18;8.20;;;5.22;;
38208;SDS011;24016;52.102;11.584;2023-05-28T02:14:44;10.15;;;5.22;;
38208;SDS011;24016;52.102;11.584;2023-05-28T02:17:10;9.00;;;5.03;;
38208;SDS011;24016;52.102;11.584;2023-05-28T02:19:36;10.18;;;5.10;;
38208;SDS011;24016;52.102;11.584;2023-05-28T02:22:02;9.60;;;5.88;;
38208;SDS011;24016;52.102;11.584;2023-05-28T02:24:36;10.43;;;6.18;;
38208;SDS011;24016;52.102;11.584;2023-05-28T02:27:03;8.60;;;5.15;;
38208;SDS011;24016;52.102;11.584;2023-05-28T02:29:29;8.23;;;5.47;;
38208;SDS011;24016;52.102;11.584;2023-05-28T02:31:55;11.38;;;5.30;;
38208;SDS011;24016;52.102;11.584;2023-05-28T02:34:21;12.77;;;5.65;;
38208;SDS011;24016;52.102;11.584;2023-05-28T02:36:46;9.48;;;5.28;;
38208;SDS011;24016;52.102;11.584;2023-05-28T02:39:12;9.18;;;5.38;;
38208;SDS011;24016;52.102;11.584;2023-05-28T02:41:38;12.88;;;6.03;;
38208;SDS011;24016;52.102;11.584;2023-05-28T02:44:03;10.20;;;6.18;;
38208;SDS011;24016;52.102;11.584;2023-05-28T02:46:29;15.95;;;5.93;;
38208;SDS011;24016;52.102;11.584;2023-05-28T02:48:55;12.00;;;6.35;;
38208;SDS011;24016;52.102;11.584;2023-05-28T02:51:20;10.95;;;5.60;;
38208;SDS011;24016;52.102;11.584;2023-05-28T02:53:46;13.38;;;6.45;;
38208;SDS011;24016;52.102;11.584;2023-05-28T02:56:12;11.70;;;6.40;;
38208;SDS011;24016;52.102;11.584;2023-05-28T02:58:37;10.60;;;6.32;;
38208;SDS011;24016;52.102;11.584;2023-05-28T03:01:04;10.77;;;5.93;;
38208;SDS011;24016;52.102;11.584;2023-05-28T03:03:31;11.10;;;6.43;;
38208;SDS011;24016;52.102;11.584;2023-05-28T03:05:56;9.60;;;6.00;;
38208;SDS011;24016;52.102;11.584;2023-05-28T03:08:22;10.65;;;6.13;;
38208;SDS011;24016;52.102;11.584;2023-05-28T03:10:48;11.60;;;6.43;;
38208;SDS011;24016;52.102;11.584;2023-05-28T03:13:13;9.48;;;5.63;;
38208;SDS011;24016;52.102;11.584;2023-05-28T03:15:39;9.10;;;5.70;;
38208;SDS011;24016;52.102;11.584;2023-05-28T03:18:05;9.82;;;6.22;;
38208;SDS011;24016;52.102;11.584;2023-05-28T03:20:30;13.15;;;6.88;;
38208;SDS011;24016;52.102;11.584;2023-05-28T03:22:56;11.82;;;5.70;;
38208;SDS011;24016;52.102;11.584;2023-05-28T03:25:23;10.60;;;5.93;;
38208;SDS011;24016;52.102;11.584;2023-05-28T03:27:50;11.38;;;5.53;;
38208;SDS011;24016;52.102;11.584;2023-05-28T03:30:19;9.50;;;5.72;;
38208;SDS011;24016;52.102;11.584;2023-05-28T03:32:46;10.40;;;5.50;;
38208;SDS011;24016;52.102;11.584;2023-05-28T03:35:12;10.32;;;5.47;;
38208;SDS011;24016;52.102;11.584;2023-05-28T03:37:38;8.82;;;4.72;;
38208;SDS011;24016;52.102;11.584;2023-05-28T03:40:04;12.10;;;5.50;;
38208;SDS011;24016;52.102;11.584;2023-05-28T03:42:30;8.80;;;5.70;;
38208;SDS011;24016;52.102;11.584;2023-05-28T03:44:56;11.40;;;5.95;;
38208;SDS011;24016;52.102;11.584;2023-05-28T03:47:21;8.57;;;5.43;;
38208;SDS011;24016;52.102;11.584;2023-05-28T03:49:47;8.85;;;5.78;;
38208;SDS011;24016;52.102;11.584;2023-05-28T03:52:13;11.77;;;5.45;;
38208;SDS011;24016;52.102;11.584;2023-05-28T03:54:39;10.25;;;5.43;;
38208;SDS011;24016;52.102;11.584;2023-05-28T03:57:04;8.80;;;5.80;;
38208;SDS011;24016;52.102;11.584;2023-05-28T03:59:30;7.20;;;5.13;;
38208;SDS011;24016;52.102;11.584;2023-05-28T04:01:56;7.65;;;5.53;;
38208;SDS011;24016;52.102;11.584;2023-05-28T04:04:21;8.02;;;5.13;;
38208;SDS011;24016;52.102;11.584;2023-05-28T04:06:47;10.02;;;5.90;;
38208;SDS011;24016;52.102;11.584;2023-05-28T04:09:12;7.82;;;5.28;;
38208;SDS011;24016;52.102;11.584;2023-05-28T04:11:38;12.95;;;6.38;;
38208;SDS011;24016;52.102;11.584;2023-05-28T04:14:04;9.50;;;5.65;;
38208;SDS011;24016;52.102;11.584;2023-05-28T04:16:30;12.52;;;6.70;;
38208;SDS011;24016;52.102;11.584;2023-05-28T04:18:56;10.10;;;6.35;;
38208;SDS011;24016;52.102;11.584;2023-05-28T04:21:22;10.65;;;6.93;;
38208;SDS011;24016;52.102;11.584;2023-05-28T04:23:48;11.77;;;6.85;;
38208;SDS011;24016;52.102;11.584;2023-05-28T04:26:14;10.32;;;6.35;;
38208;SDS011;24016;52.102;11.584;2023-05-28T04:28:41;11.85;;;7.30;;
38208;SDS011;24016;52.102;11.584;2023-05-28T04:31:06;11.93;;;7.43;;
38208;SDS011;24016;52.102;11.584;2023-05-28T04:33:32;16.17;;;8.20;;
38208;SDS011;24016;52.102;11.584;2023-05-28T04:35:58;13.45;;;7.72;;
38208;SDS011;24016;52.102;11.584;2023-05-28T04:38:25;13.35;;;7.15;;
38208;SDS011;24016;52.102;11.584;2023-05-28T04:40:56;14.80;;;7.72;;
38208;SDS011;24016;52.102;11.584;2023-05-28T04:43:22;11.30;;;6.60;;
38208;SDS011;24016;52.102;11.584;2023-05-28T04:45:48;12.88;;;7.22;;
38208;SDS011;24016;52.102;11.584;2023-05-28T04:48:14;9.48;;;6.43;;
38208;SDS011;24016;52.102;11.584;2023-05-28T04:50:39;13.23;;;6.80;;
38208;SDS011;24016;52.102;11.584;2023-05-28T04:53:05;14.90;;;7.15;;
38208;SDS011;24016;52.102;11.584;2023-05-28T04:55:31;10.80;;;6.45;;
38208;SDS011;24016;52.102;11.584;2023-05-28T04:57:56;10.43;;;6.75;;
38208;SDS011;24016;52.102;11.584;2023-05-28T05:00:22;10.65;;;6.65;;
38208;SDS011;24016;52.102;11.584;2023-05-28T05:02:49;10.82;;;6.63;;
38208;SDS011;24016;52.102;11.584;2023-05-28T05:05:16;9.68;;;6.32;;
38208;SDS011;24016;52.102;11.584;2023-05-28T05:07:41;10.75;;;6.28;;
38208;SDS011;24016;52.102;11.584;2023-05-28T05:10:08;8.93;;;5.53;;
38208;SDS011;24016;52.102;11.584;2023-05-28T05:12:34;9.43;;;6.10;;
38208;SDS011;24016;52.102;11.584;2023-05-28T05:15:00;9.27;;;5.25;;
38208;SDS011;24016;52.102;11.584;2023-05-28T05:17:26;8.73;;;5.45;;
38208;SDS011;24016;52.102;11.584;2023-05-28T05:19:52;9.15;;;4.80;;
38208;SDS011;24016;52.102;11.584;2023-05-28T05:22:17;10.10;;;5.40;;
38208;SDS011;24016;52.102;11.584;2023-05-28T05:24:44;8.02;;;5.07;;
38208;SDS011;24016;52.102;11.584;2023-05-28T05:27:11;9.20;;;5.50;;
38208;SDS011;24016;52.102;11.584;2023-05-28T05:29:36;8.15;;;4.72;;
38208;SDS011;24016;52.102;11.584;2023-05-28T05:32:05;7.25;;;4.70;;
38208;SDS011;24016;52.102;11.584;2023-05-28T05:34:32;8.43;;;4.30;;
38208;SDS011;24016;52.102;11.584;2023-05-28T05:36:57;7.78;;;5.15;;
38208;SDS011;24016;52.102;11.584;2023-05-28T05:39:26;9.10;;;5.50;;
38208;SDS011;24016;52.102;11.584;2023-05-28T05:41:52;12.32;;;5.35;;
38208;SDS011;24016;52.102;11.584;2023-05-28T05:44:18;9.15;;;5.10;;
38208;SDS011;24016;52.102;11.584;2023-05-28T05:46:44;8.02;;;5.10;;
38208;SDS011;24016;52.102;11.584;2023-05-28T05:49:09;9.73;;;5.65;;
38208;SDS011;24016;52.102;11.584;2023-05-28T05:51:38;8.73;;;4.80;;
38208;SDS011;24016;52.102;11.584;2023-05-28T05:54:04;9.02;;;4.50;;
38208;SDS011;24016;52.102;11.584;2023-05-28T05:56:30;8.48;;;4.55;;
38208;SDS011;24016;52.102;11.584;2023-05-28T05:58:57;10.43;;;4.85;;
38208;SDS011;24016;52.102;11.584;2023-05-28T06:01:23;10.15;;;5.20;;
38208;SDS011;24016;52.102;11.584;2023-05-28T06:03:49;7.18;;;4.78;;
38208;SDS011;24016;52.102;11.584;2023-05-28T06:06:15;9.75;;;4.70;;
38208;SDS011;24016;52.102;11.584;2023-05-28T06:08:41;7.97;;;4.63;;
38208;SDS011;24016;52.102;11.584;2023-05-28T06:11:07;15.25;;;5.20;;
38208;SDS011;24016;52.102;11.584;2023-05-28T06:13:32;7.68;;;4.15;;
38208;SDS011;24016;52.102;11.584;2023-05-28T06:16:00;8.00;;;4.05;;
38208;SDS011;24016;52.102;11.584;2023-05-28T06:18:26;8.45;;;4.25;;
38208;SDS011;24016;52.102;11.584;2023-05-28T06:20:51;8.13;;;4.07;;
38208;SDS011;24016;52.102;11.584;2023-05-28T06:23:18;11.82;;;4.65;;
38208;SDS011;24016;52.102;11.584;2023-05-28T06:25:43;7.88;;;4.03;;
38208;SDS011;24016;52.102;11.584;2023-05-28T06:28:09;6.75;;;4.00;;
38208;SDS011;24016;52.102;11.584;2023-05-28T06:30:35;8.05;;;4.22;;
38208;SDS011;24016;52.102;11.584;2023-05-28T06:33:01;9.18;;;4.15;;
38208;SDS011;24016;52.102;11.584;2023-05-28T06:35:26;9.00;;;3.90;;
38208;SDS011;24016;52.102;11.584;2023-05-28T06:37:52;7.13;;;4.50;;
38208;SDS011;24016;52.102;11.584;2023-05-28T06:40:17;13.05;;;3.97;;
38208;SDS011;24016;52.102;11.584;2023-05-28T06:42:43;10.23;;;4.57;;
38208;SDS011;24016;52.102;11.584;2023-05-28T06:45:08;10.70;;;4.60;;
38208;SDS011;24016;52.102;11.584;2023-05-28T06:47:35;8.30;;;4.40;;
38208;SDS011;24016;52.102;11.584;2023-05-28T06:50:01;8.93;;;5.10;;
38208;SDS011;24016;52.102;11.584;2023-05-28T06:52:27;8.77;;;4.80;;
38208;SDS011;24016;52.102;11.584;2023-05-28T06:54:52;6.82;;;4.40;;
38208;SDS011;24016;52.102;11.584;2023-05-28T06:57:18;7.60;;;4.95;;
38208;SDS011;24016;52.102;11.584;2023-05-28T06:59:43;6.70;;;4.32;;
38208;SDS011;24016;52.102;11.584;2023-05-28T07:02:09;7.53;;;4.13;;
38208;SDS011;24016;52.102;11.584;2023-05-28T07:04:35;7.47;;;4.72;;
38208;SDS011;24016;52.102;11.584;2023-05-28T07:07:01;8.93;;;4.63;;
38208;SDS011;24016;52.102;11.584;2023-05-28T07:09:27;8.75;;;4.40;;
38208;SDS011;24016;52.102;11.584;2023-05-28T07:11:52;8.80;;;4.10;;
38208;SDS011;24016;52.102;11.584;2023-05-28T07:14:18;6.35;;;4.25;;
38208;SDS011;24016;52.102;11.584;2023-05-28T07:16:43;8.98;;;4.47;;
38208;SDS011;24016;52.102;11.584;2023-05-28T07:19:09;8.27;;;4.47;;
38208;SDS011;24016;52.102;11.584;2023-05-28T07:21:34;10.05;;;4.10;;
38208;SDS011;24016;52.102;11.584;2023-05-28T07:24:02;8.55;;;4.03;;
38208;SDS011;24016;52.102;11.584;2023-05-28T07:26:28;7.93;;;4.22;;
38208;SDS011;24016;52.102;11.584;2023-05-28T07:28:53;7.97;;;4.32;;
38208;SDS011;24016;52.102;11.584;2023-05-28T07:31:19;9.85;;;4.15;;
38208;SDS011;24016;52.102;11.584;2023-05-28T07:33:44;7.68;;;3.95;;
38208;SDS011;24016;52.102;11.584;2023-05-28T07:36:10;7.40;;;4.00;;
38208;SDS011;24016;52.102;11.584;2023-05-28T07:38:36;8.05;;;3.80;;
38208;SDS011;24016;52.102;11.584;2023-05-28T07:41:02;8.43;;;3.63;;
38208;SDS011;24016;52.102;11.584;2023-05-28T07:43:27;7.90;;;3.72;;
38208;SDS011;24016;52.102;11.584;2023-05-28T07:45:53;8.55;;;3.83;;
38208;SDS011;24016;52.102;11.584;2023-05-28T07:48:18;6.22;;;3.90;;
38208;SDS011;24016;52.102;11.584;2023-05-28T07:50:44;7.65;;;3.63;;
38208;SDS011;24016;52.102;11.584;2023-05-28T07:53:09;10.00;;;3.63;;
38208;SDS011;24016;52.102;11.584;2023-05-28T07:55:35;6.68;;;3.30;;
38208;SDS011;24016;52.102;11.584;2023-05-28T07:58:01;6.53;;;3.53;;
38208;SDS011;24016;52.102;11.584;2023-05-28T08:00:27;6.90;;;3.95;;
38208;SDS011;24016;52.102;11.584;2023-05-28T08:02:53;8.30;;;3.80;;
38208;SDS011;24016;52.102;11.584;2023-05-28T08:05:18;7.60;;;3.78;;
38208;SDS011;24016;52.102;11.584;2023-05-28T08:07:44;7.47;;;3.60;;
38208;SDS011;24016;52.102;11.584;2023-05-28T08:10:10;8.13;;;3.63;;
38208;SDS011;24016;52.102;11.584;2023-05-28T08:12:36;7.38;;;3.88;;
38208;SDS011;24016;52.102;11.584;2023-05-28T08:15:02;7.18;;;3.85;;
38208;SDS011;24016;52.102;11.584;2023-05-28T08:17:30;7.53;;;3.75;;
38208;SDS011;24016;52.102;11.584;2023-05-28T08:19:58;6.35;;;3.15;;
38208;SDS011;24016;52.102;11.584;2023-05-28T08:22:24;7.85;;;3.78;;
38208;SDS011;24016;52.102;11.584;2023-05-28T08:24:50;6.18;;;3.38;;
38208;SDS011;24016;52.102;11.584;2023-05-28T08:27:15;7.03;;;4.13;;
38208;SDS011;24016;52.102;11.584;2023-05-28T08:29:41;5.85;;;3.47;;
38208;SDS011;24016;52.102;11.584;2023-05-28T08:32:06;7.53;;;3.25;;
38208;SDS011;24016;52.102;11.584;2023-05-28T08:34:32;6.28;;;3.17;;
38208;SDS011;24016;52.102;11.584;2023-05-28T08:37:00;7.25;;;3.55;;
38208;SDS011;24016;52.102;11.584;2023-05-28T08:39:26;9.38;;;3.58;;
38208;SDS011;24016;52.102;11.584;2023-05-28T08:41:52;7.82;;;3.50;;
38208;SDS011;24016;52.102;11.584;2023-05-28T08:44:18;5.55;;;3.25;;
38208;SDS011;24016;52.102;11.584;2023-05-28T08:46:44;5.22;;;3.25;;
38208;SDS011;24016;52.102;11.584;2023-05-28T08:49:10;4.90;;;3.00;;
38208;SDS011;24016;52.102;11.584;2023-05-28T08:51:37;6.45;;;3.20;;
38208;SDS011;24016;52.102;11.584;2023-05-28T08:54:04;5.20;;;2.40;;
38208;SDS011;24016;52.102;11.584;2023-05-28T08:56:30;5.07;;;2.28;;
38208;SDS011;24016;52.102;11.584;2023-05-28T08:58:56;4.95;;;2.35;;
38208;SDS011;24016;52.102;11.584;2023-05-28T09:01:23;5.88;;;2.80;;
38208;SDS011;24016;52.102;11.584;2023-05-28T09:03:48;5.85;;;2.53;;
38208;SDS011;24016;52.102;11.584;2023-05-28T09:06:15;4.60;;;2.70;;
38208;SDS011;24016;52.102;11.584;2023-05-28T09:08:41;5.55;;;2.78;;
38208;SDS011;24016;52.102;11.584;2023-05-28T09:11:10;5.70;;;2.90;;
38208;SDS011;24016;52.102;11.584;2023-05-28T09:13:40;5.97;;;2.70;;
38208;SDS011;24016;52.102;11.584;2023-05-28T09:16:07;7.07;;;2.40;;
38208;SDS011;24016;52.102;11.584;2023-05-28T09:18:32;4.05;;;2.47;;
38208;SDS011;24016;52.102;11.584;2023-05-28T09:21:06;5.53;;;2.63;;
38208;SDS011;24016;52.102;11.584;2023-05-28T09:23:35;5.75;;;2.90;;
38208;SDS011;24016;52.102;11.584;2023-05-28T09:26:01;5.70;;;2.22;;
38208;SDS011;24016;52.102;11.584;2023-05-28T09:28:27;5.53;;;2.17;;
38208;SDS011;24016;52.102;11.584;2023-05-28T09:30:56;5.25;;;2.35;;
38208;SDS011;24016;52.102;11.584;2023-05-28T09:33:28;4.90;;;2.53;;
38208;SDS011;24016;52.102;11.584;2023-05-28T09:35:57;6.30;;;2.80;;
38208;SDS011;24016;52.102;11.584;2023-05-28T09:38:36;4.55;;;2.38;;
38208;SDS011;24016;52.102;11.584;2023-05-28T09:41:04;7.45;;;2.35;;
38208;SDS011;24016;52.102;11.584;2023-05-28T09:43:30;3.92;;;2.30;;
38208;SDS011;24016;52.102;11.584;2023-05-28T09:46:06;6.07;;;2.95;;
38208;SDS011;24016;52.102;11.584;2023-05-28T09:48:32;5.60;;;2.40;;
38208;SDS011;24016;52.102;11.584;2023-05-28T09:50:58;5.40;;;2.72;;
38208;SDS011;24016;52.102;11.584;2023-05-28T09:53:27;6.15;;;3.05;;
38208;SDS011;24016;52.102;11.584;2023-05-28T09:55:54;8.77;;;2.53;;
38208;SDS011;24016;52.102;11.584;2023-05-28T09:58:22;7.80;;;2.67;;
38208;SDS011;24016;52.102;11.584;2023-05-28T10:00:56;3.58;;;2.38;;
38208;SDS011;24016;52.102;11.584;2023-05-28T10:03:31;9.70;;;3.08;;
38208;SDS011;24016;52.102;11.584;2023-05-28T10:06:13;7.95;;;2.80;;
38208;SDS011;24016;52.102;11.584;2023-05-28T10:08:42;5.18;;;2.83;;
38208;SDS011;24016;52.102;11.584;2023-05-28T10:11:15;3.58;;;2.40;;
38208;SDS011;24016;52.102;11.584;2023-05-28T10:13:44;5.32;;;2.65;;
38208;SDS011;24016;52.102;11.584;2023-05-28T10:16:10;5.15;;;2.35;;
38208;SDS011;24016;52.102;11.584;2023-05-28T10:18:37;5.03;;;2.85;;
38208;SDS011;24016;52.102;11.584;2023-05-28T10:21:03;8.00;;;2.75;;
38208;SDS011;24016;52.102;11.584;2023-05-28T10:23:30;4.28;;;2.60;;
38208;SDS011;24016;52.102;11.584;2023-05-28T10:25:56;8.10;;;3.08;;
38208;SDS011;24016;52.102;11.584;2023-05-28T10:28:22;5.95;;;2.60;;
38208;SDS011;24016;52.102;11.584;2023-05-28T10:30:59;5.30;;;2.60;;
38208;SDS011;24016;52.102;11.584;2023-05-28T10:33:28;4.95;;;2.50;;
38208;SDS011;24016;52.102;11.584;2023-05-28T10:35:55;5.85;;;2.60;;
38208;SDS011;24016;52.102;11.584;2023-05-28T10:38:21;4.18;;;2.55;;
38208;SDS011;24016;52.102;11.584;2023-05-28T10:40:47;5.20;;;2.80;;
38208;SDS011;24016;52.102;11.584;2023-05-28T10:46:07;8.10;;;2.70;;
38208;SDS011;24016;52.102;11.584;2023-05-28T10:48:37;5.53;;;2.75;;
38208;SDS011;24016;52.102;11.584;2023-05-28T10:51:04;6.70;;;2.80;;
38208;SDS011;24016;52.102;11.584;2023-05-28T10:53:29;4.07;;;2.53;;
38208;SDS011;24016;52.102;11.584;2023-05-28T10:55:55;5.22;;;2.97;;
38208;SDS011;24016;52.102;11.584;2023-05-28T11:00:51;5.90;;;2.50;;
38208;SDS011;24016;52.102;11.584;2023-05-28T11:03:17;6.55;;;3.25;;
38208;SDS011;24016;52.102;11.584;2023-05-28T11:05:43;6.53;;;2.70;;
38208;SDS011;24016;52.102;11.584;2023-05-28T11:08:09;5.57;;;3.08;;
38208;SDS011;24016;52.102;11.584;2023-05-28T11:10:35;7.38;;;2.92;;
38208;SDS011;24016;52.102;11.584;2023-05-28T11:13:01;6.70;;;2.75;;
38208;SDS011;24016;52.102;11.584;2023-05-28T11:15:26;5.30;;;2.72;;
38208;SDS011;24016;52.102;11.584;2023-05-28T11:17:52;7.75;;;3.17;;
38208;SDS011;24016;52.102;11.584;2023-05-28T11:20:26;5.45;;;2.78;;
38208;SDS011;24016;52.102;11.584;2023-05-28T11:22:53;4.43;;;2.85;;
38208;SDS011;24016;52.102;11.584;2023-05-28T11:25:19;5.70;;;3.20;;
38208;SDS011;24016;52.102;11.584;2023-05-28T11:27:52;5.13;;;2.88;;
38208;SDS011;24016;52.102;11.584;2023-05-28T11:30:18;6.63;;;3.05;;
38208;SDS011;24016;52.102;11.584;2023-05-28T11:32:45;6.13;;;2.95;;
38208;SDS011;24016;52.102;11.584;2023-05-28T11:35:12;4.90;;;2.75;;
38208;SDS011;24016;52.102;11.584;2023-05-28T11:37:39;7.80;;;3.08;;
38208;SDS011;24016;52.102;11.584;2023-05-28T11:40:07;4.95;;;2.80;;
38208;SDS011;24016;52.102;11.584;2023-05-28T11:42:37;5.35;;;2.58;;
38208;SDS011;24016;52.102;11.584;2023-05-28T11:45:04;5.30;;;2.70;;
38208;SDS011;24016;52.102;11.584;2023-05-28T11:47:32;5.20;;;2.65;;
38208;SDS011;24016;52.102;11.584;2023-05-28T11:49:58;8.10;;;2.90;;
38208;SDS011;24016;52.102;11.584;2023-05-28T11:52:24;4.00;;;2.53;;
38208;SDS011;24016;52.102;11.584;2023-05-28T11:54:54;4.82;;;2.45;;
38208;SDS011;24016;52.102;11.584;2023-05-28T11:57:22;5.80;;;2.33;;
38208;SDS011;24016;52.102;11.584;2023-05-28T12:00:00;4.80;;;2.40;;
38208;SDS011;24016;52.102;11.584;2023-05-28T12:02:40;6.35;;;2.63;;
38208;SDS011;24016;52.102;11.584;2023-05-28T12:05:13;5.07;;;2.70;;
38208;SDS011;24016;52.102;11.584;2023-05-28T12:07:44;6.25;;;2.33;;
38208;SDS011;24016;52.102;11.584;2023-05-28T12:10:11;5.60;;;2.60;;
38208;SDS011;24016;52.102;11.584;2023-05-28T12:12:42;4.88;;;2.83;;
38208;SDS011;24016;52.102;11.584;2023-05-28T12:15:08;3.63;;;2.03;;
38208;SDS011;24016;52.102;11.584;2023-05-28T12:17:35;4.75;;;2.70;;
38208;SDS011;24016;52.102;11.584;2023-05-28T12:20:03;6.05;;;2.53;;
38208;SDS011;24016;52.102;11.584;2023-05-28T12:22:37;3.75;;;2.55;;
38208;SDS011;24016;52.102;11.584;2023-05-28T12:25:03;4.63;;;2.53;;
38208;SDS011;24016;52.102;11.584;2023-05-28T12:27:30;4.68;;;2.53;;
38208;SDS011;24016;52.102;11.584;2023-05-28T12:29:55;4.38;;;2.67;;
38208;SDS011;24016;52.102;11.584;2023-05-28T12:32:21;7.22;;;2.90;;
38208;SDS011;24016;52.102;11.584;2023-05-28T12:34:46;4.18;;;2.53;;
38208;SDS011;24016;52.102;11.584;2023-05-28T12:37:12;4.97;;;2.33;;
38208;SDS011;24016;52.102;11.584;2023-05-28T12:39:38;4.53;;;3.00;;
38208;SDS011;24016;52.102;11.584;2023-05-28T12:42:04;3.28;;;2.00;;
38208;SDS011;24016;52.102;11.584;2023-05-28T12:44:30;6.03;;;2.38;;
38208;SDS011;24016;52.102;11.584;2023-05-28T12:46:56;5.28;;;2.20;;
38208;SDS011;24016;52.102;11.584;2023-05-28T12:49:22;4.93;;;2.70;;
38208;SDS011;24016;52.102;11.584;2023-05-28T12:51:47;4.22;;;2.40;;
38208;SDS011;24016;52.102;11.584;2023-05-28T12:54:13;6.78;;;2.47;;
38208;SDS011;24016;52.102;11.584;2023-05-28T12:56:49;4.47;;;2.35;;
38208;SDS011;24016;52.102;11.584;2023-05-28T12:59:25;5.28;;;2.72;;
38208;SDS011;24016;52.102;11.584;2023-05-28T13:01:55;5.95;;;2.90;;
38208;SDS011;24016;52.102;11.584;2023-05-28T13:04:24;5.15;;;2.60;;
38208;SDS011;24016;52.102;11.584;2023-05-28T13:06:53;4.90;;;2.50;;
38208;SDS011;24016;52.102;11.584;2023-05-28T13:09:34;5.30;;;2.47;;
38208;SDS011;24016;52.102;11.584;2023-05-28T13:12:17;4.22;;;2.83;;
38208;SDS011;24016;52.102;11.584;2023-05-28T13:14:43;3.60;;;2.30;;
38208;SDS011;24016;52.102;11.584;2023-05-28T13:17:16;4.55;;;2.30;;
38208;SDS011;24016;52.102;11.584;2023-05-28T13:19:48;5.28;;;2.20;;
38208;SDS011;24016;52.102;11.584;2023-05-28T13:22:18;4.88;;;2.60;;
38208;SDS011;24016;52.102;11.584;2023-05-28T13:24:47;4.53;;;2.72;;
38208;SDS011;24016;52.102;11.584;2023-05-28T13:27:13;5.55;;;2.22;;
38208;SDS011;24016;52.102;11.584;2023-05-28T13:29:43;2.83;;;2.17;;
38208;SDS011;24016;52.102;11.584;2023-05-28T13:32:16;4.10;;;2.25;;
38208;SDS011;24016;52.102;11.584;2023-05-28T13:34:55;5.18;;;2.58;;
38208;SDS011;24016;52.102;11.584;2023-05-28T13:37:24;3.97;;;2.15;;
38208;SDS011;24016;52.102;11.584;2023-05-28T13:39:55;4.13;;;2.30;;
38208;SDS011;24016;52.102;11.584;2023-05-28T13:42:26;3.28;;;2.20;;
38208;SDS011;24016;52.102;11.584;2023-05-28T13:44:53;4.90;;;2.65;;
38208;SDS011;24016;52.102;11.584;2023-05-28T13:47:18;5.20;;;2.72;;
38208;SDS011;24016;52.102;11.584;2023-05-28T13:49:46;4.15;;;2.42;;
38208;SDS011;24016;52.102;11.584;2023-05-28T13:52:12;4.30;;;2.25;;
38208;SDS011;24016;52.102;11.584;2023-05-28T13:54:37;4.25;;;2.30;;
38208;SDS011;24016;52.102;11.584;2023-05-28T13:57:06;5.47;;;2.38;;
38208;SDS011;24016;52.102;11.584;2023-05-28T13:59:32;4.57;;;2.38;;
38208;SDS011;24016;52.102;11.584;2023-05-28T14:01:57;5.22;;;2.60;;
38208;SDS011;24016;52.102;11.584;2023-05-28T14:04:23;4.35;;;2.38;;
38208;SDS011;24016;52.102;11.584;2023-05-28T14:06:49;6.03;;;2.58;;
38208;SDS011;24016;52.102;11.584;2023-05-28T14:09:14;4.80;;;2.97;;
38208;SDS011;24016;52.102;11.584;2023-05-28T14:11:40;4.25;;;2.38;;
38208;SDS011;24016;52.102;11.584;2023-05-28T14:14:06;5.18;;;2.47;;
38208;SDS011;24016;52.102;11.584;2023-05-28T14:16:32;7.40;;;2.72;;
38208;SDS011;24016;52.102;11.584;2023-05-28T14:18:58;5.80;;;2.45;;
38208;SDS011;24016;52.102;11.584;2023-05-28T14:21:24;7.13;;;2.47;;
38208;SDS011;24016;52.102;11.584;2023-05-28T14:23:49;5.28;;;2.80;;
38208;SDS011;24016;52.102;11.584;2023-05-28T14:26:15;6.65;;;2.80;;
38208;SDS011;24016;52.102;11.584;2023-05-28T14:28:41;7.45;;;2.78;;
38208;SDS011;24016;52.102;11.584;2023-05-28T14:31:07;4.22;;;2.40;;
38208;SDS011;24016;52.102;11.584;2023-05-28T14:33:32;4.72;;;2.58;;
38208;SDS011;24016;52.102;11.584;2023-05-28T14:35:58;4.80;;;2.70;;